sensor_id;sensor_type;location;lat;lon;timestamp;pressure;altitude;pressure_sealevel;temperature;humidity
53546;BME280;39432;51.902;10.844;2024-02-21T00:02:29;100020.94;;;8.99;100.00
53546;BME280;39432;51.902;10.844;2024-02-21T00:05:00;100021.16;;;9.09;100.00
53546;BME280;39432;51.902;10.844;2024-02-21T00:07:32;100015.94;;;9.19;100.00
53546;BME280;39432;51.902;10.844;2024-02-21T00:10:03;100011.09;;;9.10;100.00
53546;BME280;39432;51.902;10.844;2024-02-21T00:12:33;100007.63;;;9.14;100.00
53546;BME280;39432;51.902;10.844;2024-02-21T00:15:03;100015.47;;;9.11;100.00
53546;BME280;39432;51.902;10.844;2024-02-21T00:17:33;100012.97;;;9.21;100.00
53546;BME280;39432;51.902;10.844;2024-02-21T00:20:04;100008.72;;;9.13;100.00
53546;BME280;39432;51.902;10.844;2024-02-21T00:22:37;100005.63;;;8.98;100.00
53546;BME280;39432;51.902;10.844;2024-02-21T00:25:08;100000.28;;;9.03;100.00
53546;BME280;39432;51.902;10.844;2024-02-21T00:27:38;100002.19;;;8.91;100.00
53546;BME280;39432;51.902;10.844;2024-02-21T00:30:09;99999.59;;;8.96;100.00
53546;BME280;39432;51.902;10.844;2024-02-21T00:32:39;100004.69;;;8.92;100.00
53546;BME280;39432;51.902;10.844;2024-02-21T00:35:09;100001.13;;;9.04;100.00
53546;BME280;39432;51.902;10.844;2024-02-21T00:37:42;100006.31;;;9.17;100.00
53546;BME280;39432;51.902;10.844;2024-02-21T00:40:12;100017.69;;;9.37;100.00
53546;BME280;39432;51.902;10.844;2024-02-21T00:42:47;100011.88;;;9.57;100.00
53546;BME280;39432;51.902;10.844;2024-02-21T00:45:17;100010.22;;;9.56;100.00
53546;BME280;39432;51.902;10.844;2024-02-21T00:47:47;100019.63;;;9.25;100.00
53546;BME280;39432;51.902;10.844;2024-02-21T00:50:17;100023.75;;;9.39;100.00
53546;BME280;39432;51.902;10.844;2024-02-21T00:52:50;100030.75;;;9.47;100.00
53546;BME280;39432;51.902;10.844;2024-02-21T00:55:20;100031.00;;;9.10;100.00
53546;BME280;39432;51.902;10.844;2024-02-21T00:57:50;100045.63;;;9.16;100.00
53546;BME280;39432;51.902;10.844;2024-02-21T01:00:20;100045.13;;;8.84;100.00
53546;BME280;39432;51.902;10.844;2024-02-21T01:02:50;100050.69;;;8.89;100.00
53546;BME280;39432;51.902;10.844;2024-02-21T01:05:20;100056.00;;;8.60;100.00
53546;BME280;39432;51.902;10.844;2024-02-21T01:07:52;100070.22;;;8.62;100.00
53546;BME280;39432;51.902;10.844;2024-02-21T01:10:22;100073.97;;;8.50;100.00
53546;BME280;39432;51.902;10.844;2024-02-21T01:12:52;100074.81;;;9.15;100.00
53546;BME280;39432;51.902;10.844;2024-02-21T01:15:23;100069.47;;;8.85;100.00
53546;BME280;39432;51.902;10.844;2024-02-21T01:17:53;100045.56;;;8.57;100.00
53546;BME280;39432;51.902;10.844;2024-02-21T01:20:24;100050.66;;;8.54;100.00
53546;BME280;39432;51.902;10.844;2024-02-21T01:22:56;100039.41;;;8.32;100.00
53546;BME280;39432;51.902;10.844;2024-02-21T01:25:26;100042.13;;;8.32;100.00
53546;BME280;39432;51.902;10.844;2024-02-21T01:27:56;100044.09;;;8.43;100.00
53546;BME280;39432;51.902;10.844;2024-02-21T01:30:26;100036.63;;;8.50;100.00
53546;BME280;39432;51.902;10.844;2024-02-21T01:32:56;100038.75;;;8.36;100.00
53546;BME280;39432;51.902;10.844;2024-02-21T01:35:26;100023.63;;;8.34;100.00
53546;BME280;39432;51.902;10.844;2024-02-21T01:37:58;100025.78;;;8.32;100.00
53546;BME280;39432;51.902;10.844;2024-02-21T01:40:28;100028.75;;;8.30;100.00
53546;BME280;39432;51.902;10.844;2024-02-21T01:42:58;100031.22;;;8.32;100.00
53546;BME280;39432;51.902;10.844;2024-02-21T01:45:28;100036.50;;;8.45;100.00
53546;BME280;39432;51.902;10.844;2024-02-21T01:47:58;100020.31;;;8.32;100.00
53546;BME280;39432;51.902;10.844;2024-02-21T01:50:28;100029.38;;;8.44;100.00
53546;BME280;39432;51.902;10.844;2024-02-21T01:53:01;100023.53;;;8.70;100.00
53546;BME280;39432;51.902;10.844;2024-02-21T01:55:31;100023.00;;;8.50;100.00
53546;BME280;39432;51.902;10.844;2024-02-21T01:58:02;100021.69;;;8.41;100.00
53546;BME280;39432;51.902;10.844;2024-02-21T02:00:32;100021.69;;;8.41;100.00
53546;BME280;39432;51.902;10.844;2024-02-21T02:03:04;100018.28;;;8.27;100.00
53546;BME280;39432;51.902;10.844;2024-02-21T02:05:34;100021.56;;;8.36;100.00
53546;BME280;39432;51.902;10.844;2024-02-21T02:08:07;100008.22;;;8.28;100.00
53546;BME280;39432;51.902;10.844;2024-02-21T02:10:37;100011.28;;;8.19;100.00
53546;BME280;39432;51.902;10.844;2024-02-21T02:13:07;99999.91;;;8.23;100.00
53546;BME280;39432;51.902;10.844;2024-02-21T02:15:38;100005.34;;;8.23;100.00
53546;BME280;39432;51.902;10.844;2024-02-21T02:18:08;99996.69;;;8.14;100.00
53546;BME280;39432;51.902;10.844;2024-02-21T02:20:39;99999.75;;;8.17;100.00
53546;BME280;39432;51.902;10.844;2024-02-21T02:23:36;100005.34;;;8.23;100.00
53546;BME280;39432;51.902;10.844;2024-02-21T02:26:06;100007.94;;;8.17;100.00
53546;BME280;39432;51.902;10.844;2024-02-21T02:28:36;100008.75;;;8.18;100.00
53546;BME280;39432;51.902;10.844;2024-02-21T02:31:06;100005.34;;;8.23;100.00
53546;BME280;39432;51.902;10.844;2024-02-21T02:33:36;100013.13;;;8.07;100.00
53546;BME280;39432;51.902;10.844;2024-02-21T02:36:06;100022.03;;;8.14;100.00
53546;BME280;39432;51.902;10.844;2024-02-21T02:38:39;100020.28;;;8.20;100.00
53546;BME280;39432;51.902;10.844;2024-02-21T02:41:09;100021.56;;;8.17;100.00
53546;BME280;39432;51.902;10.844;2024-02-21T02:43:39;100023.22;;;8.18;100.00
53546;BME280;39432;51.902;10.844;2024-02-21T02:46:09;100032.94;;;8.14;100.00
53546;BME280;39432;51.902;10.844;2024-02-21T02:48:39;100014.47;;;8.16;100.00
53546;BME280;39432;51.902;10.844;2024-02-21T02:51:09;100013.59;;;8.04;100.00
53546;BME280;39432;51.902;10.844;2024-02-21T02:53:41;100013.13;;;8.07;100.00
53546;BME280;39432;51.902;10.844;2024-02-21T02:56:14;100009.06;;;7.98;100.00
53546;BME280;39432;51.902;10.844;2024-02-21T02:58:44;99998.31;;;8.03;100.00
53546;BME280;39432;51.902;10.844;2024-02-21T03:01:14;100001.63;;;8.05;100.00
53546;BME280;39432;51.902;10.844;2024-02-21T03:03:44;99995.69;;;7.97;100.00
53546;BME280;39432;51.902;10.844;2024-02-21T03:06:15;100004.81;;;8.02;100.00
53546;BME280;39432;51.902;10.844;2024-02-21T03:08:47;99990.00;;;7.98;100.00
53546;BME280;39432;51.902;10.844;2024-02-21T03:11:21;99988.00;;;8.05;100.00
53546;BME280;39432;51.902;10.844;2024-02-21T03:13:57;99982.09;;;8.08;100.00
53546;BME280;39432;51.902;10.844;2024-02-21T03:16:27;99968.59;;;8.13;100.00
53546;BME280;39432;51.902;10.844;2024-02-21T03:18:57;99959.81;;;8.11;100.00
53546;BME280;39432;51.902;10.844;2024-02-21T03:21:27;99952.13;;;8.08;100.00
53546;BME280;39432;51.902;10.844;2024-02-21T03:23:59;99948.88;;;8.00;100.00
53546;BME280;39432;51.902;10.844;2024-02-21T03:26:29;99941.22;;;8.08;100.00
53546;BME280;39432;51.902;10.844;2024-02-21T03:28:59;99944.97;;;8.07;100.00
53546;BME280;39432;51.902;10.844;2024-02-21T03:31:28;99941.34;;;8.13;100.00
53546;BME280;39432;51.902;10.844;2024-02-21T03:33:58;99942.53;;;8.17;100.00
53546;BME280;39432;51.902;10.844;2024-02-21T03:36:28;99937.31;;;8.16;100.00
53546;BME280;39432;51.902;10.844;2024-02-21T03:39:01;99938.72;;;8.18;100.00
53546;BME280;39432;51.902;10.844;2024-02-21T03:41:31;99925.38;;;8.29;100.00
53546;BME280;39432;51.902;10.844;2024-02-21T03:44:01;99921.69;;;8.35;100.00
53546;BME280;39432;51.902;10.844;2024-02-21T03:46:31;99924.66;;;8.22;100.00
53546;BME280;39432;51.902;10.844;2024-02-21T03:49:01;99928.38;;;8.39;100.00
53546;BME280;39432;51.902;10.844;2024-02-21T03:51:31;99920.53;;;8.31;100.00
53546;BME280;39432;51.902;10.844;2024-02-21T03:54:03;99921.63;;;8.41;100.00
53546;BME280;39432;51.902;10.844;2024-02-21T03:56:37;99920.31;;;8.44;100.00
53546;BME280;39432;51.902;10.844;2024-02-21T03:59:07;99915.00;;;8.49;100.00
53546;BME280;39432;51.902;10.844;2024-02-21T04:01:37;99906.19;;;8.35;100.00
53546;BME280;39432;51.902;10.844;2024-02-21T04:04:07;99906.09;;;8.42;100.00
53546;BME280;39432;51.902;10.844;2024-02-21T04:06:45;99896.03;;;8.42;100.00
53546;BME280;39432;51.902;10.844;2024-02-21T04:09:18;99887.16;;;8.47;100.00
53546;BME280;39432;51.902;10.844;2024-02-21T04:11:48;99881.44;;;8.49;100.00
53546;BME280;39432;51.902;10.844;2024-02-21T04:14:18;99884.41;;;8.59;100.00
53546;BME280;39432;51.902;10.844;2024-02-21T04:16:48;99853.59;;;8.47;100.00
53546;BME280;39432;51.902;10.844;2024-02-21T04:19:18;99848.34;;;8.57;100.00
53546;BME280;39432;51.902;10.844;2024-02-21T04:21:48;99828.16;;;8.81;100.00
53546;BME280;39432;51.902;10.844;2024-02-21T04:24:21;99819.16;;;8.81;100.00
53546;BME280;39432;51.902;10.844;2024-02-21T04:26:50;99814.66;;;8.75;100.00
53546;BME280;39432;51.902;10.844;2024-02-21T04:29:20;99808.25;;;8.81;100.00
53546;BME280;39432;51.902;10.844;2024-02-21T04:31:51;99804.16;;;8.43;100.00
53546;BME280;39432;51.902;10.844;2024-02-21T04:34:21;99805.31;;;8.24;100.00
53546;BME280;39432;51.902;10.844;2024-02-21T04:36:51;99788.63;;;8.20;100.00
53546;BME280;39432;51.902;10.844;2024-02-21T04:39:23;99795.97;;;8.19;100.00
53546;BME280;39432;51.902;10.844;2024-02-21T04:41:53;99786.03;;;8.13;100.00
53546;BME280;39432;51.902;10.844;2024-02-21T04:44:23;99790.63;;;8.01;100.00
53546;BME280;39432;51.902;10.844;2024-02-21T04:46:53;99789.44;;;7.97;100.00
53546;BME280;39432;51.902;10.844;2024-02-21T04:49:23;99785.28;;;7.83;100.00
53546;BME280;39432;51.902;10.844;2024-02-21T04:51:53;99782.69;;;7.88;100.00
53546;BME280;39432;51.902;10.844;2024-02-21T04:54:25;99783.75;;;7.87;100.00
53546;BME280;39432;51.902;10.844;2024-02-21T04:56:55;99779.72;;;7.78;100.00
53546;BME280;39432;51.902;10.844;2024-02-21T04:59:25;99776.88;;;7.96;100.00
53546;BME280;39432;51.902;10.844;2024-02-21T05:01:55;99756.72;;;7.74;100.00
53546;BME280;39432;51.902;10.844;2024-02-21T05:04:25;99749.88;;;7.83;100.00
53546;BME280;39432;51.902;10.844;2024-02-21T05:06:55;99736.84;;;7.85;100.00
53546;BME280;39432;51.902;10.844;2024-02-21T05:09:28;99740.88;;;7.94;100.00
53546;BME280;39432;51.902;10.844;2024-02-21T05:11:58;99718.84;;;7.84;100.00
53546;BME280;39432;51.902;10.844;2024-02-21T05:14:28;99718.38;;;7.87;100.00
53546;BME280;39432;51.902;10.844;2024-02-21T05:16:58;99724.28;;;7.72;100.00
53546;BME280;39432;51.902;10.844;2024-02-21T05:19:28;99738.72;;;7.73;100.00
53546;BME280;39432;51.902;10.844;2024-02-21T05:21:59;99765.84;;;7.68;100.00
53546;BME280;39432;51.902;10.844;2024-02-21T05:24:31;99768.81;;;7.78;100.00
53546;BME280;39432;51.902;10.844;2024-02-21T05:27:01;99768.94;;;7.83;100.00
53546;BME280;39432;51.902;10.844;2024-02-21T05:29:32;99766.91;;;7.90;100.00
53546;BME280;39432;51.902;10.844;2024-02-21T05:32:03;99758.88;;;7.72;100.00
53546;BME280;39432;51.902;10.844;2024-02-21T05:34:33;99782.31;;;7.73;100.00
53546;BME280;39432;51.902;10.844;2024-02-21T05:37:03;99791.16;;;7.68;100.00
53546;BME280;39432;51.902;10.844;2024-02-21T05:39:36;99795.22;;;7.77;100.00
53546;BME280;39432;51.902;10.844;2024-02-21T05:42:06;99800.56;;;7.84;100.00
53546;BME280;39432;51.902;10.844;2024-02-21T05:44:36;99802.09;;;7.80;100.00
53546;BME280;39432;51.902;10.844;2024-02-21T05:47:06;99803.06;;;7.97;100.00
53546;BME280;39432;51.902;10.844;2024-02-21T05:49:39;99801.03;;;7.81;100.00
53546;BME280;39432;51.902;10.844;2024-02-21T05:52:09;99798.78;;;8.01;100.00
53546;BME280;39432;51.902;10.844;2024-02-21T05:54:42;99798.66;;;7.96;100.00
53546;BME280;39432;51.902;10.844;2024-02-21T05:57:16;99800.34;;;8.09;100.00
53546;BME280;39432;51.902;10.844;2024-02-21T05:59:46;99798.69;;;8.19;100.00
53546;BME280;39432;51.902;10.844;2024-02-21T06:02:16;99797.38;;;7.87;100.00
53546;BME280;39432;51.902;10.844;2024-02-21T06:04:46;99800.31;;;7.74;100.00
53546;BME280;39432;51.902;10.844;2024-02-21T06:07:16;99794.72;;;7.69;100.00
53546;BME280;39432;51.902;10.844;2024-02-21T06:09:49;99800.31;;;7.74;100.00
53546;BME280;39432;51.902;10.844;2024-02-21T06:12:19;99793.91;;;7.80;100.00
53546;BME280;39432;51.902;10.844;2024-02-21T06:14:49;99810.75;;;7.77;100.00
53546;BME280;39432;51.902;10.844;2024-02-21T06:17:19;99806.56;;;7.74;100.00
53546;BME280;39432;51.902;10.844;2024-02-21T06:19:48;99815.63;;;7.86;100.00
53546;BME280;39432;51.902;10.844;2024-02-21T06:22:18;99807.19;;;7.88;100.00
53546;BME280;39432;51.902;10.844;2024-02-21T06:24:51;99803.41;;;7.89;100.00
53546;BME280;39432;51.902;10.844;2024-02-21T06:27:21;99808.41;;;7.92;100.00
53546;BME280;39432;51.902;10.844;2024-02-21T06:29:51;99805.19;;;7.95;100.00
53546;BME280;39432;51.902;10.844;2024-02-21T06:32:21;99811.00;;;7.87;100.00
53546;BME280;39432;51.902;10.844;2024-02-21T06:34:51;99814.56;;;7.99;100.00
53546;BME280;39432;51.902;10.844;2024-02-21T06:37:21;99806.63;;;7.98;100.00
53546;BME280;39432;51.902;10.844;2024-02-21T06:39:54;99805.78;;;7.97;100.00
53546;BME280;39432;51.902;10.844;2024-02-21T06:42:24;99799.63;;;8.02;100.00
53546;BME280;39432;51.902;10.844;2024-02-21T06:44:54;99789.66;;;8.07;100.00
53546;BME280;39432;51.902;10.844;2024-02-21T06:47:24;99783.63;;;8.17;100.00
53546;BME280;39432;51.902;10.844;2024-02-21T06:49:54;99785.78;;;8.03;100.00
53546;BME280;39432;51.902;10.844;2024-02-21T06:52:23;99784.22;;;8.07;100.00
53546;BME280;39432;51.902;10.844;2024-02-21T06:54:56;99775.00;;;8.08;100.00
53546;BME280;39432;51.902;10.844;2024-02-21T06:57:26;99777.34;;;8.16;100.00
53546;BME280;39432;51.902;10.844;2024-02-21T06:59:56;99763.38;;;8.25;100.00
53546;BME280;39432;51.902;10.844;2024-02-21T07:02:26;99762.06;;;8.39;100.00
53546;BME280;39432;51.902;10.844;2024-02-21T07:04:56;99763.16;;;8.38;100.00
53546;BME280;39432;51.902;10.844;2024-02-21T07:07:26;99766.94;;;8.13;100.00
53546;BME280;39432;51.902;10.844;2024-02-21T07:09:59;99770.50;;;8.26;100.00
53546;BME280;39432;51.902;10.844;2024-02-21T07:12:29;99760.19;;;8.04;100.00
53546;BME280;39432;51.902;10.844;2024-02-21T07:14:59;99774.38;;;8.18;100.00
53546;BME280;39432;51.902;10.844;2024-02-21T07:17:32;99776.53;;;8.04;100.00
53546;BME280;39432;51.902;10.844;2024-02-21T07:20:02;99780.44;;;8.08;100.00
53546;BME280;39432;51.902;10.844;2024-02-21T07:22:32;99778.69;;;8.02;100.00
53546;BME280;39432;51.902;10.844;2024-02-21T07:25:06;99784.72;;;8.04;100.00
53546;BME280;39432;51.902;10.844;2024-02-21T07:27:36;99778.69;;;8.02;100.00
53546;BME280;39432;51.902;10.844;2024-02-21T07:30:07;99784.34;;;8.01;100.00
53546;BME280;39432;51.902;10.844;2024-02-21T07:32:41;99772.28;;;7.97;100.00
53546;BME280;39432;51.902;10.844;2024-02-21T07:35:11;99781.16;;;7.92;100.00
53546;BME280;39432;51.902;10.844;2024-02-21T07:37:40;99784.00;;;8.09;100.00
53546;BME280;39432;51.902;10.844;2024-02-21T07:40:15;99768.34;;;8.28;100.00
53546;BME280;39432;51.902;10.844;2024-02-21T07:42:45;99769.75;;;8.18;100.00
53546;BME280;39432;51.902;10.844;2024-02-21T07:45:18;99779.25;;;8.28;100.00
53546;BME280;39432;51.902;10.844;2024-02-21T07:47:51;99782.81;;;8.40;100.00
53546;BME280;39432;51.902;10.844;2024-02-21T07:50:21;99785.28;;;8.53;100.00
53546;BME280;39432;51.902;10.844;2024-02-21T07:52:51;99782.09;;;8.33;100.00
53546;BME280;39432;51.902;10.844;2024-02-21T07:55:23;99785.44;;;8.47;100.00
53546;BME280;39432;51.902;10.844;2024-02-21T07:57:53;99779.47;;;8.61;100.00
53546;BME280;39432;51.902;10.844;2024-02-21T08:00:23;99775.41;;;8.76;100.00
53546;BME280;39432;51.902;10.844;2024-02-21T08:02:53;99773.00;;;8.91;100.00
53546;BME280;39432;51.902;10.844;2024-02-21T08:05:23;99766.88;;;9.01;100.00
53546;BME280;39432;51.902;10.844;2024-02-21T08:07:52;99755.91;;;8.84;100.00
53546;BME280;39432;51.902;10.844;2024-02-21T08:10:27;99756.72;;;8.96;100.00
53546;BME280;39432;51.902;10.844;2024-02-21T08:12:57;99748.03;;;8.99;100.00
53546;BME280;39432;51.902;10.844;2024-02-21T08:15:27;99739.06;;;8.87;100.00
53546;BME280;39432;51.902;10.844;2024-02-21T08:17:58;99748.41;;;9.19;100.00
53546;BME280;39432;51.902;10.844;2024-02-21T08:20:31;99748.38;;;9.03;100.00
53546;BME280;39432;51.902;10.844;2024-02-21T08:23:00;99745.50;;;9.09;100.00
53546;BME280;39432;51.902;10.844;2024-02-21T08:25:33;99751.94;;;9.03;100.00
53546;BME280;39432;51.902;10.844;2024-02-21T08:28:04;99749.16;;;9.15;100.00
53546;BME280;39432;51.902;10.844;2024-02-21T08:30:34;99756.59;;;9.19;100.00
53546;BME280;39432;51.902;10.844;2024-02-21T08:33:04;99748.91;;;9.16;100.00
53546;BME280;39432;51.902;10.844;2024-02-21T08:35:34;99751.72;;;9.21;100.00
53546;BME280;39432;51.902;10.844;2024-02-21T08:38:04;99755.78;;;9.19;100.00
53546;BME280;39432;51.902;10.844;2024-02-21T08:40:37;99753.56;;;9.33;100.00
53546;BME280;39432;51.902;10.844;2024-02-21T08:43:07;99749.28;;;9.37;100.00
53546;BME280;39432;51.902;10.844;2024-02-21T08:45:37;99754.72;;;9.37;100.00
53546;BME280;39432;51.902;10.844;2024-02-21T08:48:07;99750.03;;;9.49;100.00
53546;BME280;39432;51.902;10.844;2024-02-21T08:50:37;99748.19;;;9.38;100.00
53546;BME280;39432;51.902;10.844;2024-02-21T08:53:07;99744.63;;;9.37;100.00
53546;BME280;39432;51.902;10.844;2024-02-21T08:55:40;99738.16;;;9.27;100.00
53546;BME280;39432;51.902;10.844;2024-02-21T08:58:11;99743.72;;;9.48;100.00
53546;BME280;39432;51.902;10.844;2024-02-21T09:00:43;99747.00;;;9.62;100.00
53546;BME280;39432;51.902;10.844;2024-02-21T09:03:13;99741.84;;;9.49;100.00
53546;BME280;39432;51.902;10.844;2024-02-21T09:05:44;99731.41;;;9.46;100.00
53546;BME280;39432;51.902;10.844;2024-02-21T09:08:14;99732.41;;;9.73;100.00
53546;BME280;39432;51.902;10.844;2024-02-21T09:10:48;99727.56;;;9.97;100.00
53546;BME280;39432;51.902;10.844;2024-02-21T09:13:18;99738.09;;;9.89;100.00
53546;BME280;39432;51.902;10.844;2024-02-21T09:15:48;99741.72;;;10.28;100.00
53546;BME280;39432;51.902;10.844;2024-02-21T09:18:18;99737.50;;;10.03;100.00
53546;BME280;39432;51.902;10.844;2024-02-21T09:20:48;99732.41;;;9.73;100.00
53546;BME280;39432;51.902;10.844;2024-02-21T09:23:18;99728.34;;;9.42;100.00
53546;BME280;39432;51.902;10.844;2024-02-21T09:25:52;99725.13;;;9.62;100.00
53546;BME280;39432;51.902;10.844;2024-02-21T09:28:22;99712.53;;;9.95;100.00
53546;BME280;39432;51.902;10.844;2024-02-21T09:30:52;99701.00;;;9.93;100.00
53546;BME280;39432;51.902;10.844;2024-02-21T09:33:22;99695.00;;;9.74;100.00
53546;BME280;39432;51.902;10.844;2024-02-21T09:35:58;99688.03;;;10.05;100.00
53546;BME280;39432;51.902;10.844;2024-02-21T09:38:28;99684.84;;;9.91;100.00
53546;BME280;39432;51.902;10.844;2024-02-21T09:41:11;99686.03;;;9.79;100.00
53546;BME280;39432;51.902;10.844;2024-02-21T09:43:51;99695.81;;;10.13;100.00
53546;BME280;39432;51.902;10.844;2024-02-21T09:46:27;99697.03;;;10.00;100.00
53546;BME280;39432;51.902;10.844;2024-02-21T09:49:09;99692.16;;;9.86;100.00
53546;BME280;39432;51.902;10.844;2024-02-21T09:51:43;99692.28;;;10.13;100.00
53546;BME280;39432;51.902;10.844;2024-02-21T09:54:14;99691.03;;;10.03;100.00
53546;BME280;39432;51.902;10.844;2024-02-21T09:56:48;99686.25;;;9.94;100.00
53546;BME280;39432;51.902;10.844;2024-02-21T09:59:18;99691.44;;;10.12;100.00
53546;BME280;39432;51.902;10.844;2024-02-21T10:01:48;99699.06;;;10.10;100.00
53546;BME280;39432;51.902;10.844;2024-02-21T10:04:19;99693.16;;;10.35;100.00
53546;BME280;39432;51.902;10.844;2024-02-21T10:06:49;99690.66;;;10.34;100.00
53546;BME280;39432;51.902;10.844;2024-02-21T10:09:21;99677.75;;;10.51;100.00
53546;BME280;39432;51.902;10.844;2024-02-21T10:11:54;99680.03;;;10.59;100.00
53546;BME280;39432;51.902;10.844;2024-02-21T10:14:25;99674.03;;;10.18;100.00
53546;BME280;39432;51.902;10.844;2024-02-21T10:16:57;99676.53;;;10.42;100.00
53546;BME280;39432;51.902;10.844;2024-02-21T10:19:28;99676.09;;;10.50;100.00
53546;BME280;39432;51.902;10.844;2024-02-21T10:22:02;99676.53;;;10.42;100.00
53546;BME280;39432;51.902;10.844;2024-02-21T10:24:35;99658.34;;;10.52;100.00
53546;BME280;39432;51.902;10.844;2024-02-21T10:27:11;99653.69;;;10.53;100.00
53546;BME280;39432;51.902;10.844;2024-02-21T10:29:41;99661.72;;;10.38;100.00
53546;BME280;39432;51.902;10.844;2024-02-21T10:32:12;99658.88;;;10.76;100.00
53546;BME280;39432;51.902;10.844;2024-02-21T10:34:43;99638.25;;;10.42;100.00
53546;BME280;39432;51.902;10.844;2024-02-21T10:37:13;99629.41;;;10.35;100.00
53546;BME280;39432;51.902;10.844;2024-02-21T10:39:43;99627.91;;;10.44;100.00
53546;BME280;39432;51.902;10.844;2024-02-21T10:42:17;99632.84;;;10.47;100.00
53546;BME280;39432;51.902;10.844;2024-02-21T10:44:51;99631.19;;;10.46;100.00
53546;BME280;39432;51.902;10.844;2024-02-21T10:47:21;99623.16;;;10.61;100.00
53546;BME280;39432;51.902;10.844;2024-02-21T10:49:58;99615.59;;;10.73;100.00
53546;BME280;39432;51.902;10.844;2024-02-21T10:52:40;99608.88;;;10.86;100.00
53546;BME280;39432;51.902;10.844;2024-02-21T10:55:20;99611.41;;;10.66;100.00
53546;BME280;39432;51.902;10.844;2024-02-21T10:57:53;99605.44;;;10.69;100.00
53546;BME280;39432;51.902;10.844;2024-02-21T11:00:24;99600.44;;;11.25;100.00
53546;BME280;39432;51.902;10.844;2024-02-21T11:02:57;99597.16;;;11.23;100.00
53546;BME280;39432;51.902;10.844;2024-02-21T11:05:29;99588.66;;;11.24;100.00
53546;BME280;39432;51.902;10.844;2024-02-21T11:08:00;99585.59;;;11.58;100.00
53546;BME280;39432;51.902;10.844;2024-02-21T11:10:30;99578.25;;;11.21;100.00
53546;BME280;39432;51.902;10.844;2024-02-21T11:13:11;99570.97;;;11.00;100.00
53546;BME280;39432;51.902;10.844;2024-02-21T11:15:41;99570.56;;;10.86;100.00
53546;BME280;39432;51.902;10.844;2024-02-21T11:18:23;99567.56;;;10.88;100.00
53546;BME280;39432;51.902;10.844;2024-02-21T11:20:53;99561.06;;;10.94;100.00
53546;BME280;39432;51.902;10.844;2024-02-21T11:23:26;99543.88;;;11.41;100.00
53546;BME280;39432;51.902;10.844;2024-02-21T11:26:04;99553.41;;;10.96;100.00
53546;BME280;39432;51.902;10.844;2024-02-21T11:28:37;99546.41;;;11.10;100.00
53546;BME280;39432;51.902;10.844;2024-02-21T11:31:08;99546.88;;;11.02;100.00
53546;BME280;39432;51.902;10.844;2024-02-21T11:33:40;99543.31;;;11.01;100.00
53546;BME280;39432;51.902;10.844;2024-02-21T11:36:23;99537.72;;;11.23;100.00
53546;BME280;39432;51.902;10.844;2024-02-21T11:38:53;99516.16;;;11.32;100.00
53546;BME280;39432;51.902;10.844;2024-02-21T11:41:23;99507.19;;;11.47;100.00
53546;BME280;39432;51.902;10.844;2024-02-21T11:43:56;99505.56;;;11.51;100.00
53546;BME280;39432;51.902;10.844;2024-02-21T11:46:26;99499.78;;;12.05;100.00
53546;BME280;39432;51.902;10.844;2024-02-21T11:48:56;99490.97;;;11.93;100.00
53546;BME280;39432;51.902;10.844;2024-02-21T11:51:28;99486.03;;;11.95;100.00
53546;BME280;39432;51.902;10.844;2024-02-21T11:53:58;99479.91;;;11.72;100.00
53546;BME280;39432;51.902;10.844;2024-02-21T11:56:28;99470.97;;;11.87;100.00
53546;BME280;39432;51.902;10.844;2024-02-21T11:59:01;99463.06;;;12.42;100.00
53546;BME280;39432;51.902;10.844;2024-02-21T12:01:33;99464.63;;;11.81;100.00
53546;BME280;39432;51.902;10.844;2024-02-21T12:04:03;99455.91;;;10.90;100.00
53546;BME280;39432;51.902;10.844;2024-02-21T12:06:33;99447.59;;;10.74;100.00
53546;BME280;39432;51.902;10.844;2024-02-21T12:09:03;99445.72;;;10.80;100.00
53546;BME280;39432;51.902;10.844;2024-02-21T12:11:33;99447.13;;;10.88;100.00
53546;BME280;39432;51.902;10.844;2024-02-21T12:14:06;99434.09;;;11.00;100.00
53546;BME280;39432;51.902;10.844;2024-02-21T12:16:36;99424.47;;;11.50;100.00
53546;BME280;39432;51.902;10.844;2024-02-21T12:19:06;99425.94;;;11.15;100.00
53546;BME280;39432;51.902;10.844;2024-02-21T12:21:36;99421.69;;;11.40;100.00
53546;BME280;39432;51.902;10.844;2024-02-21T12:24:14;99412.00;;;11.17;100.00
53546;BME280;39432;51.902;10.844;2024-02-21T12:26:44;99401.06;;;12.10;100.00
53546;BME280;39432;51.902;10.844;2024-02-21T12:29:16;99400.44;;;11.72;100.00
53546;BME280;39432;51.902;10.844;2024-02-21T12:31:46;99392.63;;;11.33;100.00
53546;BME280;39432;51.902;10.844;2024-02-21T12:34:17;99395.31;;;11.23;100.00
53546;BME280;39432;51.902;10.844;2024-02-21T12:37:04;99380.00;;;11.27;100.00
53546;BME280;39432;51.902;10.844;2024-02-21T12:39:34;99378.38;;;11.37;100.00
53546;BME280;39432;51.902;10.844;2024-02-21T12:42:05;99384.06;;;12.08;100.00
53546;BME280;39432;51.902;10.844;2024-02-21T12:44:39;99373.38;;;12.11;100.00
53546;BME280;39432;51.902;10.844;2024-02-21T12:47:10;99365.31;;;11.54;100.00
53546;BME280;39432;51.902;10.844;2024-02-21T12:49:40;99366.91;;;11.40;100.00
53546;BME280;39432;51.902;10.844;2024-02-21T12:52:12;99363.22;;;12.27;100.00
53546;BME280;39432;51.902;10.844;2024-02-21T12:54:42;99355.69;;;11.46;100.00
53546;BME280;39432;51.902;10.844;2024-02-21T12:57:12;99360.47;;;11.97;100.00
53546;BME280;39432;51.902;10.844;2024-02-21T12:59:44;99350.50;;;11.55;100.00
53546;BME280;39432;51.902;10.844;2024-02-21T13:02:14;99348.03;;;11.48;100.00
53546;BME280;39432;51.902;10.844;2024-02-21T13:04:45;99343.28;;;11.18;100.00
53546;BME280;39432;51.902;10.844;2024-02-21T13:07:15;99337.06;;;11.48;100.00